M I D A S
Marine Information and Data Acquisition System
Tripno 1724 of the Zeeleeuw from 2009-03-16 08:21:21 to 2009-03-16 13:36:56
Back to CruiseResearch ActivitiesStationsMapUnderway DataData graphs

EquipmentUnitsComment
TimeDGPSUTC
LatitudeDGPSDM.mWGS84
LongitudeDGPSDM.mWGS84
HeadingGyrodeg 
SOGDGPSknotsSpeed over ground
COGDGPSdegCourse over ground
DepthEcho soundermeters200 kHz
Missing or incorrect values are displayed as -999
Navigation data collected by the RV Zeeleeuw from 2009-03-16 08:24:21 to 2009-03-16 13:46:07
                                                                                    Next 1000 lines
Time Latitude Longitude Heading SOG COG Depth
2009-03-16 08:24:32 51°13.663 2°55.956 114.5 0.9 295 1
2009-03-16 08:24:37 51°13.663 2°55.954 114.6 1.1 300 1
2009-03-16 08:24:42 51°13.664 2°55.951 114.8 1.3 296 1
2009-03-16 08:24:47 51°13.665 2°55.948 114.8 1.5 298 1.2
2009-03-16 08:24:52 51°13.666 2°55.944 115.1 1.7 298 -999
2009-03-16 08:24:58 51°13.668 2°55.94 115.5 1.8 298 -999
2009-03-16 08:25:04 51°13.669 2°55.936 116 2 300 -999
2009-03-16 08:25:09 51°13.671 2°55.931 116.4 2.1 299 0.8
2009-03-16 08:25:15 51°13.673 2°55.926 116.9 2.2 300 -999
2009-03-16 08:25:21 51°13.675 2°55.921 117.2 2.4 300 -999
2009-03-16 08:25:25 51°13.676 2°55.917 117.2 2.5 300 -999
2009-03-16 08:25:30 51°13.678 2°55.912 116.9 2.6 300 -999
2009-03-16 08:25:36 51°13.68 2°55.906 116.2 2.5 298 0.8
2009-03-16 08:25:41 51°13.682 2°55.901 115 2.5 297 -999
2009-03-16 08:25:46 51°13.683 2°55.896 113.6 2.5 295 -999
2009-03-16 08:25:50 51°13.684 2°55.892 112 2.5 294 1.5
2009-03-16 08:25:55 51°13.686 2°55.887 110.6 2.4 294 2.9
2009-03-16 08:26:00 51°13.687 2°55.882 109.2 2.4 291 1.8
2009-03-16 08:26:05 51°13.688 2°55.877 107.8 2.4 290 2.3
2009-03-16 08:26:10 51°13.689 2°55.872 106.2 2.4 290 1.8
2009-03-16 08:26:15 51°13.69 2°55.867 104.9 2.4 289 2
2009-03-16 08:26:20 51°13.691 2°55.862 103.6 2.4 288 2.5
2009-03-16 08:26:25 51°13.692 2°55.857 102.4 2.4 287 2.4
2009-03-16 08:26:30 51°13.693 2°55.852 101.2 2.4 286 -999
2009-03-16 08:26:34 51°13.694 2°55.848 99.9 2.5 285 3
2009-03-16 08:26:39 51°13.695 2°55.842 98.6 2.5 283 2.3
2009-03-16 08:26:44 51°13.696 2°55.837 97.2 2.5 282 2
2009-03-16 08:26:50 51°13.696 2°55.83 95.8 2.6 281 3.8
2009-03-16 08:26:54 51°13.697 2°55.826 94.2 2.5 280 3.9
2009-03-16 08:26:58 51°13.697 2°55.822 92.6 2.6 278 4
2009-03-16 08:27:04 51°13.698 2°55.815 91 2.5 277 4.1
2009-03-16 08:27:09 51°13.698 2°55.809 89.4 2.5 276 4.3
2009-03-16 08:27:14 51°13.699 2°55.804 87.9 2.6 274 1.5
2009-03-16 08:27:19 51°13.699 2°55.798 86.3 2.5 273 5.2
2009-03-16 08:27:24 51°13.699 2°55.793 84.6 2.4 272 5.6
2009-03-16 08:27:29 51°13.699 2°55.788 83.1 2.4 272 5.8
2009-03-16 08:27:34 51°13.699 2°55.782 81.6 2.3 271 6.2
2009-03-16 08:27:39 51°13.699 2°55.778 80.3 2.2 270 6.4
2009-03-16 08:27:43 51°13.699 2°55.775 79.2 1.9 271 6.5
2009-03-16 08:27:48 51°13.699 2°55.771 77.8 1.5 271 6.5
2009-03-16 08:27:53 51°13.699 2°55.769 75.6 1.1 279 6.5
2009-03-16 08:27:58 51°13.699 2°55.767 72.2 0.7 289 5.4
2009-03-16 08:28:03 51°13.7 2°55.767 68 0.5 313 3.8
2009-03-16 08:28:08 51°13.701 2°55.767 63.2 0.5 353 5.9
2009-03-16 08:28:12 51°13.702 2°55.767 58.1 0.8 15 5.3
2009-03-16 08:28:17 51°13.703 2°55.767 52.4 1 21 5.3
2009-03-16 08:28:22 51°13.705 2°55.769 46.5 1.2 20 5.4
2009-03-16 08:28:27 51°13.706 2°55.77 40.5 1.4 20 6.5
2009-03-16 08:28:32 51°13.708 2°55.771 34.8 1.4 17 5.7
2009-03-16 08:28:37 51°13.71 2°55.771 29.4 1.3 10 6.5
2009-03-16 08:28:42 51°13.711 2°55.771 25.7 1.1 6 6.5
2009-03-16 08:28:47 51°13.713 2°55.771 22.5 0.7 354 6.1
2009-03-16 08:28:52 51°13.713 2°55.771 19 0.3 331 6.1
2009-03-16 08:28:57 51°13.713 2°55.77 15.8 0.2 274 6.3
2009-03-16 08:29:02 51°13.713 2°55.77 13 0.4 229 5.6
2009-03-16 08:29:07 51°13.713 2°55.769 10.7 0.4 220 6.3
2009-03-16 08:29:12 51°13.712 2°55.768 8.8 0.6 207 4
2009-03-16 08:29:17 51°13.711 2°55.767 7.2 0.8 204 4.9
2009-03-16 08:29:22 51°13.71 2°55.767 5.5 0.7 203 6.5
2009-03-16 08:29:26 51°13.709 2°55.766 4.3 0.7 204 2.3
2009-03-16 08:29:32 51°13.708 2°55.766 3.2 0.6 210 2.1
2009-03-16 08:29:37 51°13.708 2°55.765 2.3 0.4 226 2.5
2009-03-16 08:29:42 51°13.708 2°55.764 1.1 0.4 311 4.8
2009-03-16 08:29:47 51°13.709 2°55.764 358.3 0.6 326 5.4
2009-03-16 08:29:52 51°13.71 2°55.763 354 1 334 6.6
2009-03-16 08:29:57 51°13.712 2°55.761 349 1.3 335 4.4
2009-03-16 08:30:02 51°13.714 2°55.76 343.4 1.6 332 4.7
2009-03-16 08:30:07 51°13.716 2°55.758 337.8 1.8 330 5
2009-03-16 08:30:11 51°13.718 2°55.756 332.7 2.1 326 6.3
2009-03-16 08:30:17 51°13.721 2°55.752 328.9 2.5 325 6.1
2009-03-16 08:30:22 51°13.724 2°55.749 326.6 2.8 324 5
2009-03-16 08:30:27 51°13.728 2°55.744 324.9 3.1 323 6.5
2009-03-16 08:30:32 51°13.731 2°55.74 323.8 3.4 322 6.4
2009-03-16 08:30:37 51°13.735 2°55.734 323.3 3.9 322 6.5
2009-03-16 08:30:42 51°13.74 2°55.729 323.6 4.1 322 6.1
2009-03-16 08:30:47 51°13.745 2°55.723 324.5 4.5 324 6.4
2009-03-16 08:30:52 51°13.75 2°55.716 325.2 4.8 322 5
2009-03-16 08:30:57 51°13.756 2°55.71 325.9 5.3 325 4.4
2009-03-16 08:31:02 51°13.762 2°55.702 326.2 5.7 323 5.1
2009-03-16 08:31:07 51°13.769 2°55.695 326.5 6.1 325 5
2009-03-16 08:31:12 51°13.777 2°55.686 327.4 6.6 326 4
2009-03-16 08:31:17 51°13.785 2°55.678 328.6 7 328 -999
2009-03-16 08:31:22 51°13.793 2°55.67 330 7.2 329 3.7
2009-03-16 08:31:27 51°13.803 2°55.662 331.4 7.5 330 -999
2009-03-16 08:31:32 51°13.812 2°55.654 332.9 7.8 332 9
2009-03-16 08:31:37 51°13.822 2°55.646 333.7 8 332 7.4
2009-03-16 08:31:42 51°13.832 2°55.637 334 8.2 333 4.6
2009-03-16 08:31:47 51°13.842 2°55.629 334.3 8.4 333 5
2009-03-16 08:31:52 51°13.853 2°55.62 334.9 8.6 334 6.9
2009-03-16 08:31:57 51°13.864 2°55.612 335.1 8.8 334 3.1
2009-03-16 08:32:02 51°13.875 2°55.603 335 9 334 5.1
2009-03-16 08:32:07 51°13.887 2°55.595 335.4 9.1 334 4.2
2009-03-16 08:32:12 51°13.899 2°55.586 335.5 9.3 333 4.1
2009-03-16 08:32:17 51°13.911 2°55.577 335.6 9.3 334 5.7
2009-03-16 08:32:22 51°13.922 2°55.568 336.5 9.4 335 5.8
2009-03-16 08:32:27 51°13.934 2°55.558 336.9 9.4 335 5.9
2009-03-16 08:32:32 51°13.945 2°55.549 336.2 9.5 334 5.9
2009-03-16 08:32:37 51°13.957 2°55.539 336 9.6 335 5.9
2009-03-16 08:32:42 51°13.969 2°55.531 336.9 9.6 335 5.9
2009-03-16 08:32:47 51°13.981 2°55.522 337.1 9.6 335 5.9
2009-03-16 08:32:52 51°13.993 2°55.512 336.8 9.6 334 5.1
2009-03-16 08:32:58 51°14.008 2°55.502 336.9 9.6 336 4.6
2009-03-16 08:33:03 51°14.02 2°55.493 337.1 9.6 335 4.2
2009-03-16 08:33:08 51°14.032 2°55.484 336.9 9.6 335 -999
2009-03-16 08:33:12 51°14.042 2°55.477 336.4 9.6 334 8.6
2009-03-16 08:33:17 51°14.054 2°55.468 336.7 9.6 336 8.6
2009-03-16 08:33:22 51°14.066 2°55.459 337.2 9.6 335 7.8
2009-03-16 08:33:27 51°14.078 2°55.45 336.6 9.7 334 5
2009-03-16 08:33:31 51°14.088 2°55.442 336.1 9.7 334 18
2009-03-16 08:33:37 51°14.102 2°55.431 335.8 9.7 334 7.6
2009-03-16 08:33:43 51°14.117 2°55.419 335.8 9.7 333 8.1
2009-03-16 08:33:47 51°14.126 2°55.411 334.9 9.8 332 9.3
2009-03-16 08:33:52 51°14.138 2°55.4 333.7 9.8 331 8
2009-03-16 08:33:57 51°14.15 2°55.389 332.4 9.8 330 7.6
2009-03-16 08:34:02 51°14.162 2°55.379 332.3 9.9 331 7.6
2009-03-16 08:34:07 51°14.174 2°55.368 332.6 9.9 330 8.2
2009-03-16 08:34:11 51°14.183 2°55.359 332.5 9.9 330 7.9
2009-03-16 08:34:17 51°14.197 2°55.345 331.1 9.9 327 8.2
2009-03-16 08:34:22 51°14.208 2°55.333 328.8 9.9 326 7.5
2009-03-16 08:34:27 51°14.22 2°55.32 327.1 10 324 8.1
2009-03-16 08:34:32 51°14.231 2°55.306 326.3 10.1 324 8.5
2009-03-16 08:34:37 51°14.242 2°55.292 324.9 10.1 321 8.2
2009-03-16 08:34:42 51°14.252 2°55.277 322.2 10.2 318 8.1
2009-03-16 08:34:47 51°14.263 2°55.262 319.6 10.2 317 7.5
2009-03-16 08:34:51 51°14.271 2°55.249 318 10.2 316 8.2
2009-03-16 08:34:57 51°14.283 2°55.23 316.6 10.2 314 4.9
2009-03-16 08:35:03 51°14.295 2°55.209 315.1 10.4 313 8.4
2009-03-16 08:35:07 51°14.302 2°55.195 313.6 10.5 311 7.7
2009-03-16 08:35:11 51°14.31 2°55.181 312.5 10.5 311 8.2
2009-03-16 08:35:17 51°14.321 2°55.16 312.1 10.6 310 8.3
2009-03-16 08:35:22 51°14.331 2°55.142 311.7 10.6 310 8.4
2009-03-16 08:35:27 51°14.34 2°55.124 311.9 10.7 310 8.4
2009-03-16 08:35:32 51°14.35 2°55.106 311.9 10.7 310 8.2
2009-03-16 08:35:37 51°14.359 2°55.087 310.9 10.7 309 8.8
2009-03-16 08:35:42 51°14.368 2°55.068 310 10.7 308 14.1
2009-03-16 08:35:47 51°14.377 2°55.05 309.7 10.7 309 14.8
2009-03-16 08:35:51 51°14.385 2°55.035 311.1 10.8 310 14.6
2009-03-16 08:35:57 51°14.397 2°55.013 311.5 10.8 309 13.9
2009-03-16 08:36:02 51°14.406 2°54.994 310.7 10.8 307 8.6
2009-03-16 08:36:07 51°14.415 2°54.975 310 10.8 306 13.1
2009-03-16 08:36:11 51°14.421 2°54.959 309.3 10.8 304 10.5
2009-03-16 08:36:17 51°14.431 2°54.934 308.2 10.9 303 10
2009-03-16 08:36:22 51°14.439 2°54.914 306.7 10.9 301 11.1
2009-03-16 08:36:27 51°14.447 2°54.893 305.6 11 300 11.6
2009-03-16 08:36:31 51°14.453 2°54.875 303.6 11.1 298 11.3
2009-03-16 08:36:37 51°14.461 2°54.849 301.7 11.1 296 10.7
2009-03-16 08:36:42 51°14.467 2°54.827 301.1 11.2 295 11.9
2009-03-16 08:36:47 51°14.474 2°54.804 301.1 11.3 296 10.8
2009-03-16 08:36:51 51°14.48 2°54.786 301.3 11.3 296 10.9
2009-03-16 08:36:57 51°14.488 2°54.759 301.9 11.3 296 10.9
2009-03-16 08:37:02 51°14.495 2°54.737 302.1 11.3 297 11.3
2009-03-16 08:37:07 51°14.502 2°54.714 302.4 11.3 297 10.7
2009-03-16 08:37:11 51°14.508 2°54.696 302.6 11.4 296 8.1
2009-03-16 08:37:16 51°14.515 2°54.673 302.3 11.5 295 10.6
2009-03-16 08:37:21 51°14.522 2°54.651 301.4 11.5 295 11.8
2009-03-16 08:37:27 51°14.53 2°54.623 301.3 11.4 295 10.7
2009-03-16 08:37:32 51°14.536 2°54.6 301.2 11.5 294 10.7
2009-03-16 08:37:37 51°14.543 2°54.576 300.6 11.6 294 10.5
2009-03-16 08:37:42 51°14.549 2°54.553 300.3 11.6 294 11.3
2009-03-16 08:37:47 51°14.556 2°54.529 300 11.6 294 10.1
2009-03-16 08:37:52 51°14.562 2°54.505 299.8 11.7 294 11.8
2009-03-16 08:37:57 51°14.569 2°54.482 299.8 11.7 294 11.9
2009-03-16 08:38:02 51°14.575 2°54.458 299.8 11.8 294 10.9
2009-03-16 08:38:07 51°14.582 2°54.434 299.8 11.8 293 10.3
2009-03-16 08:38:12 51°14.588 2°54.41 299.3 11.8 294 10.6
2009-03-16 08:38:16 51°14.594 2°54.39 299.2 11.8 294 11
2009-03-16 08:38:21 51°14.6 2°54.367 299.6 11.8 294 6
2009-03-16 08:38:27 51°14.608 2°54.338 299.7 11.8 294 6
2009-03-16 08:38:32 51°14.615 2°54.314 299.3 11.9 293 5.8
2009-03-16 08:38:37 51°14.621 2°54.29 299 11.9 294 6.1
2009-03-16 08:38:42 51°14.628 2°54.266 298.9 11.9 293 3.8
2009-03-16 08:38:47 51°14.634 2°54.242 298.7 11.9 293 6.2
2009-03-16 08:38:52 51°14.641 2°54.218 298.7 11.8 294 6.3
2009-03-16 08:38:56 51°14.647 2°54.199 298.8 11.8 296 6.3
2009-03-16 08:39:02 51°14.658 2°54.174 303.5 11.5 305 6.2
2009-03-16 08:39:07 51°14.668 2°54.155 310.7 11.2 311 6.1
2009-03-16 08:39:12 51°14.679 2°54.139 317.9 10.9 318 6.1
2009-03-16 08:39:17 51°14.691 2°54.125 324.7 10.7 324 5.7
2009-03-16 08:39:22 51°14.704 2°54.114 331.5 10.4 331 5.6
2009-03-16 08:39:27 51°14.717 2°54.105 337.9 10.1 336 5.7
2009-03-16 08:39:32 51°14.73 2°54.098 344.2 9.8 343 5.6
2009-03-16 08:39:37 51°14.743 2°54.094 350.6 9.7 348 5.3
2009-03-16 08:39:42 51°14.756 2°54.093 358.1 9.5 356 5.3
2009-03-16 08:39:47 51°14.769 2°54.094 3.1 9.3 3 5.1
2009-03-16 08:39:52 51°14.781 2°54.098 10.9 9 12 5.2
2009-03-16 08:39:57 51°14.793 2°54.104 16.8 8.9 18 5
2009-03-16 08:40:02 51°14.803 2°54.114 25.2 8.7 29 5
2009-03-16 08:40:07 51°14.813 2°54.125 33.8 8.5 39 4.9
2009-03-16 08:40:12 51°14.821 2°54.139 42.5 8.4 47 4.9
2009-03-16 08:40:17 51°14.826 2°54.155 51 8.3 57 4.9
2009-03-16 08:40:22 51°14.831 2°54.172 59.7 8.3 67 5.1
2009-03-16 08:40:27 51°14.833 2°54.19 68.4 8.2 79 5
2009-03-16 08:40:32 51°14.834 2°54.208 77 8.3 85 5
2009-03-16 08:40:37 51°14.832 2°54.226 85.6 8.3 98 5.1
2009-03-16 08:40:41 51°14.83 2°54.241 94 8.3 104 5.2
2009-03-16 08:40:47 51°14.824 2°54.261 103.1 8.4 117 5.3
2009-03-16 08:40:52 51°14.818 2°54.276 111.6 8.5 124 5.3
2009-03-16 08:40:57 51°14.809 2°54.29 120.6 8.8 135 5.4
2009-03-16 08:41:02 51°14.8 2°54.303 128.7 8.8 141 5.5
2009-03-16 08:41:07 51°14.789 2°54.312 137.6 9.1 152 5.7
2009-03-16 08:41:12 51°14.777 2°54.321 144.5 9.6 154 5.6
2009-03-16 08:41:17 51°14.763 2°54.328 151 9.9 162 5.5
2009-03-16 08:41:22 51°14.75 2°54.333 156.3 10.1 167 5.7
2009-03-16 08:41:27 51°14.735 2°54.335 162.7 10.7 175 5.4
2009-03-16 08:41:32 51°14.72 2°54.336 168.5 11 179 5.4
2009-03-16 08:41:36 51°14.707 2°54.334 175.1 11.2 185 5.8
2009-03-16 08:41:42 51°14.689 2°54.33 180.8 11.3 189 5.6
2009-03-16 08:41:47 51°14.673 2°54.324 185.4 11.7 193 5.5
2009-03-16 08:41:52 51°14.657 2°54.317 189 12.1 196 5.5
2009-03-16 08:41:56 51°14.644 2°54.309 193.2 12 201 5.8
2009-03-16 08:42:02 51°14.626 2°54.297 196.2 12.2 203 6
2009-03-16 08:42:07 51°14.61 2°54.284 199.1 12.6 207 5.8
2009-03-16 08:42:12 51°14.595 2°54.269 204.8 12.6 213 5.8
2009-03-16 08:42:17 51°14.581 2°54.253 209.4 12.7 214 5.9
2009-03-16 08:42:22 51°14.567 2°54.236 213.3 12.6 219 6
2009-03-16 08:42:27 51°14.553 2°54.219 215.5 12.7 217 6
2009-03-16 08:42:32 51°14.539 2°54.2 216.4 13 220 5.9
2009-03-16 08:42:37 51°14.526 2°54.182 218 12.9 220 6
2009-03-16 08:42:42 51°14.511 2°54.165 217.1 12.8 216 6
2009-03-16 08:42:47 51°14.497 2°54.148 214.8 12.9 217 5.4
2009-03-16 08:42:52 51°14.482 2°54.131 214.5 12.9 217 5
2009-03-16 08:42:57 51°14.468 2°54.113 215.4 13 218 4.9
2009-03-16 08:43:02 51°14.454 2°54.095 216.4 12.9 220 4.9
2009-03-16 08:43:07 51°14.441 2°54.077 217.3 12.9 218 4.9
2009-03-16 08:43:13 51°14.424 2°54.055 217 13.1 220 4.8
2009-03-16 08:43:18 51°14.41 2°54.038 217.7 12.9 219 4.8
2009-03-16 08:43:22 51°14.398 2°54.024 217.5 12.8 218 4.7
2009-03-16 08:43:27 51°14.384 2°54.008 214.3 13 214 4.7
2009-03-16 08:43:32 51°14.368 2°53.991 212.3 13.2 215 4.7
2009-03-16 08:43:37 51°14.354 2°53.974 212.8 13.1 217 4.7
2009-03-16 08:43:42 51°14.34 2°53.956 215.8 12.9 217 4.6
2009-03-16 08:43:47 51°14.325 2°53.939 215.5 13 217 4.5
2009-03-16 08:43:52 51°14.311 2°53.92 216.1 13.2 219 4.5
2009-03-16 08:43:57 51°14.297 2°53.902 217.1 13 219 4.5
2009-03-16 08:44:02 51°14.283 2°53.884 216.7 13.1 220 4.4
2009-03-16 08:44:07 51°14.27 2°53.864 218.6 13.3 223 4.4
2009-03-16 08:44:12 51°14.257 2°53.843 222.8 13.1 227 4.4
2009-03-16 08:44:17 51°14.244 2°53.823 224.7 13.2 223 4.4
2009-03-16 08:44:21 51°14.234 2°53.806 223.7 13.3 226 4.3
2009-03-16 08:44:27 51°14.219 2°53.782 224.7 12.9 224 4.4
2009-03-16 08:44:32 51°14.205 2°53.762 222.1 13.4 224 4.3
2009-03-16 08:44:37 51°14.193 2°53.739 223.9 13.3 229 4.3
2009-03-16 08:44:41 51°14.184 2°53.722 228.2 13.1 229 4.3
2009-03-16 08:44:47 51°14.17 2°53.694 229.5 13.2 233 4.3
2009-03-16 08:44:52 51°14.159 2°53.671 232.7 13.1 232 4.3
2009-03-16 08:44:57 51°14.149 2°53.648 233 13.1 234 4.3
2009-03-16 08:45:02 51°14.137 2°53.625 233.8 13.2 233 4.3
2009-03-16 08:45:07 51°14.127 2°53.601 232.8 13.2 232 4.4
2009-03-16 08:45:12 51°14.115 2°53.579 232.8 13.1 231 4.4
2009-03-16 08:45:17 51°14.105 2°53.555 232.4 13.1 234 4.4
2009-03-16 08:45:21 51°14.096 2°53.536 233.3 13.2 233 4.3
2009-03-16 08:45:27 51°14.083 2°53.508 233.3 13.3 233 4.3
2009-03-16 08:45:33 51°14.07 2°53.48 234.5 13.1 234 4.3
2009-03-16 08:45:37 51°14.061 2°53.462 233.9 13.1 233 4.3
2009-03-16 08:45:41 51°14.053 2°53.442 233.6 13.2 233 4.3
2009-03-16 08:45:47 51°14.04 2°53.414 234.2 13.3 234 4.3
2009-03-16 08:45:52 51°14.029 2°53.39 234.2 13.2 234 4.4
2009-03-16 08:45:57 51°14.018 2°53.367 234.4 13.1 234 4.4
2009-03-16 08:46:02 51°14.007 2°53.343 234 13.3 235 4.4
2009-03-16 08:46:07 51°13.997 2°53.319 234.9 13.2 235 4.4
2009-03-16 08:46:12 51°13.986 2°53.295 234.8 13.2 234 4.5
2009-03-16 08:46:17 51°13.975 2°53.272 234.2 13.3 234 4.5
2009-03-16 08:46:21 51°13.967 2°53.252 235.1 13.2 235 4.5
2009-03-16 08:46:27 51°13.954 2°53.225 234 13.3 233 4.6
2009-03-16 08:46:32 51°13.943 2°53.2 233.8 13.3 234 4.5
2009-03-16 08:46:37 51°13.932 2°53.177 233.8 13.3 233 4.6
2009-03-16 08:46:41 51°13.923 2°53.158 233.8 13.2 234 4.6
2009-03-16 08:46:47 51°13.91 2°53.13 233.3 13.3 233 4.6
2009-03-16 08:46:52 51°13.899 2°53.106 233.8 13.3 233 4.6
2009-03-16 08:46:57 51°13.888 2°53.083 233.8 13.3 234 4.7
2009-03-16 08:47:01 51°13.879 2°53.064 234.3 13.2 234 4.7
2009-03-16 08:47:07 51°13.866 2°53.036 233.9 13.3 234 4.6
2009-03-16 08:47:12 51°13.855 2°53.012 233.8 13.4 235 4.7
2009-03-16 08:47:17 51°13.845 2°52.988 234.6 13.3 233 4.7
2009-03-16 08:47:21 51°13.836 2°52.969 233.8 13.2 235 4.8
2009-03-16 08:47:27 51°13.823 2°52.94 234.5 13.4 235 4.7
2009-03-16 08:47:33 51°13.811 2°52.91 235.8 13.3 237 4.7
2009-03-16 08:47:37 51°13.802 2°52.892 236.1 13.3 233 4.8
2009-03-16 08:47:41 51°13.794 2°52.872 235.7 13.3 238 4.7
2009-03-16 08:47:47 51°13.781 2°52.843 236 13.3 233 4.8
2009-03-16 08:47:52 51°13.771 2°52.819 235.2 13.3 236 4.8
2009-03-16 08:47:57 51°13.76 2°52.795 235.7 13.3 234 4.8
2009-03-16 08:48:02 51°13.75 2°52.771 235.2 13.3 236 4.8
2009-03-16 08:48:07 51°13.739 2°52.747 235.2 13.2 235 4.9
2009-03-16 08:48:12 51°13.728 2°52.723 234.5 13.3 234 4.9
2009-03-16 08:48:17 51°13.718 2°52.699 234.7 13.3 235 5
2009-03-16 08:48:21 51°13.709 2°52.68 234.5 13.3 233 4.8
2009-03-16 08:48:27 51°13.696 2°52.652 234.1 13.3 235 4.9
2009-03-16 08:48:32 51°13.686 2°52.628 235.2 13.2 235 4.8
2009-03-16 08:48:37 51°13.675 2°52.604 235 13.4 235 4.9
2009-03-16 08:48:41 51°13.667 2°52.584 236 13.4 237 4.8
2009-03-16 08:48:47 51°13.654 2°52.556 235.8 13.2 233 4.8
2009-03-16 08:48:52 51°13.644 2°52.53 235 13.3 238 4.8
2009-03-16 08:48:57 51°13.633 2°52.507 236.3 13.3 235 4.8
2009-03-16 08:49:02 51°13.623 2°52.482 236.3 13.3 237 5
2009-03-16 08:49:07 51°13.613 2°52.457 237.1 13.3 237 4.8
2009-03-16 08:49:12 51°13.603 2°52.433 237.2 13.4 237 4.8
2009-03-16 08:49:17 51°13.593 2°52.408 237.4 13.4 238 5
2009-03-16 08:49:21 51°13.585 2°52.388 237.7 13.3 237 4.9
2009-03-16 08:49:27 51°13.573 2°52.358 237 13.3 237 4.9
2009-03-16 08:49:32 51°13.563 2°52.334 237.5 13.4 236 4.9
2009-03-16 08:49:37 51°13.553 2°52.309 237.2 13.3 238 5
2009-03-16 08:49:41 51°13.545 2°52.289 237.8 13.2 236 4.9
2009-03-16 08:49:47 51°13.532 2°52.26 236.2 13.4 235 4.9
2009-03-16 08:49:53 51°13.52 2°52.23 238.2 13.3 238 4.9
2009-03-16 08:49:57 51°13.512 2°52.211 236.7 13.3 236 4.9
2009-03-16 08:50:01 51°13.504 2°52.19 237.1 13.3 238 4.9
2009-03-16 08:50:07 51°13.492 2°52.161 237.4 13.2 237 4.9
2009-03-16 08:50:13 51°13.479 2°52.132 236.6 13.3 235 4.9
2009-03-16 08:50:17 51°13.472 2°52.112 236.7 13.3 239 4.9
2009-03-16 08:50:21 51°13.464 2°52.092 238.3 13.3 237 4.9
2009-03-16 08:50:27 51°13.453 2°52.062 239.5 13.2 241 4.8
2009-03-16 08:50:32 51°13.444 2°52.037 240.1 13.2 239 4.8
2009-03-16 08:50:37 51°13.435 2°52.011 240.8 13.2 242 4.8
2009-03-16 08:50:41 51°13.428 2°51.991 241.3 12.7 239 4.8
2009-03-16 08:50:47 51°13.418 2°51.963 241.1 12.1 241 4.8
2009-03-16 08:50:52 51°13.41 2°51.941 240.7 11.6 240 4.8
2009-03-16 08:50:57 51°13.402 2°51.92 240.8 11.2 241 4.9
2009-03-16 08:51:02 51°13.395 2°51.899 241.9 10.7 243 5
2009-03-16 08:51:07 51°13.39 2°51.878 244.2 10.3 246 5.1
2009-03-16 08:51:12 51°13.385 2°51.857 248 9.9 248 5.2
2009-03-16 08:51:17 51°13.381 2°51.837 252.4 9.6 253 5.2
2009-03-16 08:51:21 51°13.379 2°51.821 257.3 9.3 256 5.2
2009-03-16 08:51:27 51°13.376 2°51.797 261.9 9 261 5.2
2009-03-16 08:51:32 51°13.375 2°51.778 266.5 8.7 264 5.2
2009-03-16 08:51:37 51°13.374 2°51.759 270.1 8.6 266 5.3
2009-03-16 08:51:41 51°13.373 2°51.744 270.8 8.5 264 5.4
2009-03-16 08:51:47 51°13.372 2°51.722 270.5 8.5 265 5.4
2009-03-16 08:51:52 51°13.371 2°51.703 270.1 8.4 265 5.4
2009-03-16 08:51:57 51°13.37 2°51.685 269.4 8.4 264 5.4
2009-03-16 08:52:01 51°13.369 2°51.67 269.1 8.3 264 5.5
2009-03-16 08:52:07 51°13.367 2°51.649 268.7 8.3 264 5.4
2009-03-16 08:52:12 51°13.366 2°51.63 268.3 8.3 264 5.5
2009-03-16 08:52:17 51°13.365 2°51.612 268.2 8.3 264 5.5
2009-03-16 08:52:22 51°13.364 2°51.594 268.6 8.2 264 5.5
2009-03-16 08:52:27 51°13.362 2°51.576 268.9 8.2 264 5.6
2009-03-16 08:52:32 51°13.361 2°51.558 269 8.3 264 5.6
2009-03-16 08:52:37 51°13.36 2°51.54 269.4 8.2 265 5.6
2009-03-16 08:52:42 51°13.359 2°51.522 269.6 8.2 265 5.6
2009-03-16 08:52:47 51°13.358 2°51.504 269.9 8.2 265 5.7
2009-03-16 08:52:52 51°13.357 2°51.486 269.9 8.2 265 5.6
2009-03-16 08:52:57 51°13.356 2°51.468 269.9 8.2 265 5.7
2009-03-16 08:53:02 51°13.355 2°51.45 269.9 8.2 265 5.7
2009-03-16 08:53:07 51°13.354 2°51.432 269.8 8.2 265 5.7
2009-03-16 08:53:12 51°13.353 2°51.414 269.6 8.2 266 5.8
2009-03-16 08:53:17 51°13.352 2°51.396 269.8 8.2 265 5.8
2009-03-16 08:53:22 51°13.353 2°51.378 272.2 8.1 271 5.7
2009-03-16 08:53:27 51°13.353 2°51.361 276.8 7.8 274 5.8
2009-03-16 08:53:32 51°13.356 2°51.345 283.9 7.4 282 5.9
2009-03-16 08:53:37 51°13.358 2°51.33 290.4 7.1 286 6
2009-03-16 08:53:41 51°13.362 2°51.319 300.1 6.9 293 6
2009-03-16 08:53:47 51°13.366 2°51.303 306.1 6.7 295 6.1
2009-03-16 08:53:52 51°13.37 2°51.29 308.6 6.4 296 6.1
2009-03-16 08:53:57 51°13.374 2°51.278 310 6 297 6.2
2009-03-16 08:54:02 51°13.378 2°51.267 311.2 5.8 298 6.2
2009-03-16 08:54:07 51°13.381 2°51.256 311.9 5.6 298 6.2
2009-03-16 08:54:12 51°13.385 2°51.246 313.2 5.3 299 6.3
2009-03-16 08:54:17 51°13.388 2°51.236 314.4 5.1 299 6.3
2009-03-16 08:54:22 51°13.392 2°51.227 315.5 4.9 300 6.3
2009-03-16 08:54:27 51°13.395 2°51.218 317.2 4.7 300 6.3
2009-03-16 08:54:32 51°13.398 2°51.21 319.3 4.5 302 6.4
2009-03-16 08:54:37 51°13.401 2°51.202 321.4 4.3 302 6.4
2009-03-16 08:54:42 51°13.405 2°51.194 323.8 4.1 304 6.4
2009-03-16 08:54:47 51°13.408 2°51.187 325.3 3.9 305 6.4
2009-03-16 08:54:52 51°13.411 2°51.18 327.4 3.7 306 6.4
2009-03-16 08:54:57 51°13.414 2°51.174 329.5 3.6 306 6.4
2009-03-16 08:55:02 51°13.417 2°51.168 331.7 3.5 307 6.4
2009-03-16 08:55:07 51°13.419 2°51.162 333.3 3.3 308 6.4
2009-03-16 08:55:12 51°13.422 2°51.157 335.2 3.2 309 6.4
2009-03-16 08:55:17 51°13.425 2°51.152 336.9 3 310 6.4
2009-03-16 08:55:22 51°13.428 2°51.147 339 2.9 309 6.4
2009-03-16 08:55:27 51°13.43 2°51.142 340.2 2.9 311 6.4
2009-03-16 08:55:33 51°13.433 2°51.136 341.7 2.8 311 6.4
2009-03-16 08:55:37 51°13.435 2°51.133 343.1 2.7 313 6.4
2009-03-16 08:55:42 51°13.438 2°51.129 344.5 2.6 311 6.4
2009-03-16 08:55:47 51°13.44 2°51.125 345.4 2.5 312 6.4
2009-03-16 08:55:52 51°13.442 2°51.12 346.7 2.5 312 6.4
2009-03-16 08:55:57 51°13.444 2°51.117 347.8 2.3 314 6.4
2009-03-16 08:56:02 51°13.447 2°51.113 348.9 2.3 312 6.4
2009-03-16 08:56:07 51°13.449 2°51.11 349.9 2.2 314 6.5
2009-03-16 08:56:12 51°13.451 2°51.106 351 2.2 315 6.5
2009-03-16 08:56:17 51°13.453 2°51.103 352.2 2.1 315 6.5
2009-03-16 08:56:22 51°13.455 2°51.099 353.6 2 312 6.4
2009-03-16 08:56:26 51°13.456 2°51.097 355 1.9 315 6.4
2009-03-16 08:56:32 51°13.459 2°51.093 356.8 1.9 314 6.4
2009-03-16 08:56:37 51°13.46 2°51.091 358.6 1.8 315 6.4
2009-03-16 08:56:42 51°13.462 2°51.088 359.7 1.8 312 6.4
2009-03-16 08:56:46 51°13.463 2°51.086 0.8 1.7 313 6.4
2009-03-16 08:56:52 51°13.465 2°51.083 1.7 1.6 314 6.4
2009-03-16 08:56:57 51°13.467 2°51.08 2.4 1.6 312 6.4
2009-03-16 08:57:02 51°13.468 2°51.077 3 1.5 312 6.4
2009-03-16 08:57:07 51°13.47 2°51.075 3.4 1.5 308 6.4
2009-03-16 08:57:12 51°13.47 2°51.072 3.9 1.3 302 6.4
2009-03-16 08:57:17 51°13.471 2°51.069 4.4 1.3 291 6.4
2009-03-16 08:57:22 51°13.471 2°51.067 4.9 1.2 282 6.4
2009-03-16 08:57:26 51°13.472 2°51.065 5.8 1.2 275 6.4
2009-03-16 08:57:32 51°13.472 2°51.062 6.4 1.1 279 6.4
2009-03-16 08:57:37 51°13.472 2°51.059 6.6 1.2 279 6.5
2009-03-16 08:57:42 51°13.472 2°51.057 6.7 1.1 275 6.4
2009-03-16 08:57:46 51°13.472 2°51.054 7.1 1.2 277 6.4
2009-03-16 08:57:52 51°13.473 2°51.051 7.4 1.1 275 6.4
2009-03-16 08:57:57 51°13.473 2°51.049 7.8 1.1 277 6.4
2009-03-16 08:58:02 51°13.473 2°51.047 8 1.1 276 6.4
2009-03-16 08:58:06 51°13.473 2°51.045 8.1 1.1 276 6.4
2009-03-16 08:58:12 51°13.473 2°51.042 8.4 1 277 6.4
2009-03-16 08:58:17 51°13.473 2°51.039 8.5 1.2 275 6.2
2009-03-16 08:58:22 51°13.474 2°51.037 8.7 1 277 6.4
2009-03-16 08:58:27 51°13.474 2°51.034 8.8 1.2 276 6.4
2009-03-16 08:58:32 51°13.474 2°51.032 8.8 1 275 6.4
2009-03-16 08:58:37 51°13.474 2°51.03 9 1.1 275 6.4
2009-03-16 08:58:42 51°13.474 2°51.027 8.9 1.1 273 6.4
2009-03-16 08:58:46 51°13.475 2°51.025 8.9 1.2 276 6.4
2009-03-16 08:58:52 51°13.475 2°51.023 8.9 1.1 275 6.4
2009-03-16 08:58:57 51°13.475 2°51.02 8.9 1.1 273 6.4
2009-03-16 08:59:02 51°13.475 2°51.018 8.8 1.1 271 6.4
2009-03-16 08:59:07 51°13.475 2°51.015 8.8 1.1 274 6.4
2009-03-16 08:59:12 51°13.475 2°51.012 8.4 1.1 272 6.3
2009-03-16 08:59:17 51°13.475 2°51.01 8.1 1.2 272 6.4
2009-03-16 08:59:22 51°13.475 2°51.008 8 1.1 274 6.4
2009-03-16 08:59:27 51°13.475 2°51.005 7.7 1.2 272 6.4
2009-03-16 08:59:32 51°13.475 2°51.003 7.3 1.1 275 6.4
2009-03-16 08:59:37 51°13.475 2°51 7.2 1 273 6.3
2009-03-16 08:59:42 51°13.475 2°50.998 6.8 1.1 273 6.3
2009-03-16 08:59:47 51°13.475 2°50.995 6.6 1.1 271 6.3
2009-03-16 08:59:52 51°13.475 2°50.993 6.4 1.1 272 6.3
2009-03-16 08:59:57 51°13.475 2°50.991 6.1 1.1 273 6.3
2009-03-16 09:00:02 51°13.476 2°50.988 5.9 1.1 272 6.4
2009-03-16 09:00:07 51°13.476 2°50.986 5.5 1.1 271 6.4
2009-03-16 09:00:12 51°13.476 2°50.983 5.4 1.1 270 6.3
2009-03-16 09:00:17 51°13.476 2°50.981 5.1 1.1 270 6.3
2009-03-16 09:00:22 51°13.476 2°50.979 5 1.1 269 6.3
2009-03-16 09:00:26 51°13.476 2°50.977 4.5 1.2 270 6.3
2009-03-16 09:00:32 51°13.476 2°50.974 4.4 1 268 6.3
2009-03-16 09:00:37 51°13.475 2°50.971 4.2 1.2 270 6.3
2009-03-16 09:00:42 51°13.475 2°50.969 3.9 1.1 269 6.2
2009-03-16 09:00:46 51°13.475 2°50.967 3.7 1.1 269 6.2
2009-03-16 09:00:52 51°13.475 2°50.964 3.5 1.1 269 6.2
2009-03-16 09:00:57 51°13.475 2°50.961 3.2 1.1 269 6.2
2009-03-16 09:01:02 51°13.475 2°50.959 3 1.1 269 6.2
2009-03-16 09:01:07 51°13.475 2°50.957 2.9 1 268 6.2
2009-03-16 09:01:12 51°13.475 2°50.954 2.5 1.2 269 6.2
2009-03-16 09:01:17 51°13.475 2°50.952 2.5 1.1 271 6.2
2009-03-16 09:01:22 51°13.475 2°50.949 2.3 1.1 269 6.3
2009-03-16 09:01:27 51°13.475 2°50.947 2.1 1.1 268 6.2
2009-03-16 09:01:32 51°13.475 2°50.944 1.6 1.1 268 6.2
2009-03-16 09:01:37 51°13.475 2°50.942 1.6 1.1 269 6.2
2009-03-16 09:01:42 51°13.475 2°50.94 1.3 1.1 269 6.2
2009-03-16 09:01:47 51°13.475 2°50.937 1.1 1.1 268 6.2
2009-03-16 09:01:52 51°13.475 2°50.935 0.9 1.1 269 6.2
2009-03-16 09:01:57 51°13.475 2°50.933 0.7 1 269 6.2
2009-03-16 09:02:02 51°13.475 2°50.93 0.6 1.1 270 6.2
2009-03-16 09:02:07 51°13.475 2°50.928 0.4 1 268 6.2
2009-03-16 09:02:13 51°13.475 2°50.925 0.2 1.2 270 6.2
2009-03-16 09:02:17 51°13.475 2°50.923 0.1 1 269 6.2
2009-03-16 09:02:22 51°13.475 2°50.921 -999 1.1 267 6.1
2009-03-16 09:02:27 51°13.475 2°50.918 359.8 1.1 266 6.1
2009-03-16 09:02:32 51°13.475 2°50.916 359.8 1.1 267 6.1
2009-03-16 09:02:37 51°13.475 2°50.914 359.9 1 268 6.1
2009-03-16 09:02:42 51°13.474 2°50.911 359.8 1.2 264 6.1
2009-03-16 09:02:47 51°13.474 2°50.909 359.8 1.1 262 6.1
2009-03-16 09:02:52 51°13.474 2°50.907 359.8 1.1 261 6.1
2009-03-16 09:02:57 51°13.474 2°50.904 359.8 1 257 6.1
2009-03-16 09:03:01 51°13.474 2°50.902 359.8 1.1 258 6.1
2009-03-16 09:03:07 51°13.473 2°50.9 359.9 1 257 6.2
2009-03-16 09:03:12 51°13.473 2°50.897 0.1 1.1 254 6.1
2009-03-16 09:03:17 51°13.472 2°50.895 0.2 1 250 6.2
2009-03-16 09:03:22 51°13.472 2°50.893 0.5 1.2 250 6.1
2009-03-16 09:03:27 51°13.471 2°50.891 0.6 1.1 246 6.1
2009-03-16 09:03:32 51°13.47 2°50.888 0.9 1.2 242 6.1
2009-03-16 09:03:37 51°13.469 2°50.886 1.2 1.1 240 6.2
2009-03-16 09:03:42 51°13.468 2°50.884 1.3 1.3 237 6.1
2009-03-16 09:03:47 51°13.467 2°50.881 1.5 1.3 235 6.1
2009-03-16 09:03:52 51°13.466 2°50.879 1.5 1.3 232 6.1
2009-03-16 09:03:57 51°13.465 2°50.877 1.7 1.3 229 6.1
2009-03-16 09:04:02 51°13.464 2°50.875 1.6 1.3 228 6.1
2009-03-16 09:04:07 51°13.463 2°50.873 1.5 1.5 227 6.2
2009-03-16 09:04:12 51°13.461 2°50.871 1.5 1.4 223 6.1
2009-03-16 09:04:17 51°13.46 2°50.868 1.2 1.6 225 6.1
2009-03-16 09:04:22 51°13.458 2°50.866 1 1.5 218 6.2
2009-03-16 09:04:27 51°13.456 2°50.864 1 1.6 223 6.2
2009-03-16 09:04:32 51°13.455 2°50.862 1 1.6 217 6.2
2009-03-16 09:04:37 51°13.453 2°50.859 1.1 1.7 220 6.2
2009-03-16 09:04:42 51°13.451 2°50.857 1.3 1.6 216 6.2
2009-03-16 09:04:47 51°13.449 2°50.855 1.5 1.7 221 6.2
2009-03-16 09:04:52 51°13.448 2°50.853 1.8 1.5 215 6.2
2009-03-16 09:04:57 51°13.446 2°50.85 2 1.6 220 6.2
2009-03-16 09:05:02 51°13.444 2°50.848 2.4 1.5 218 6.2
2009-03-16 09:05:07 51°13.442 2°50.845 2.8 1.6 222 6.2
2009-03-16 09:05:12 51°13.44 2°50.843 3.2 1.5 218 6.3
2009-03-16 09:05:17 51°13.439 2°50.841 3.7 1.6 222 6.2
2009-03-16 09:05:21 51°13.437 2°50.839 4.1 1.5 219 6.3
2009-03-16 09:05:27 51°13.436 2°50.837 4.6 1.6 220 6.3
2009-03-16 09:05:32 51°13.434 2°50.835 5 1.6 221 6.3
2009-03-16 09:05:37 51°13.432 2°50.832 5.6 1.6 221 6.3
2009-03-16 09:05:42 51°13.431 2°50.83 6.1 1.6 223 6.3
2009-03-16 09:05:47 51°13.429 2°50.828 6.6 1.5 222 6.3
2009-03-16 09:05:52 51°13.428 2°50.826 7.3 1.6 222 6.2
2009-03-16 09:05:57 51°13.426 2°50.824 8.1 1.5 220 6.3
2009-03-16 09:06:02 51°13.425 2°50.821 8.5 1.6 224 6.3
2009-03-16 09:06:07 51°13.423 2°50.819 9 1.5 221 6.3
2009-03-16 09:06:12 51°13.422 2°50.817 9.8 1.6 226 6.3
2009-03-16 09:06:17 51°13.42 2°50.814 10.3 1.5 223 6.3
2009-03-16 09:06:22 51°13.418 2°50.812 11.1 1.5 226 6.3
2009-03-16 09:06:27 51°13.417 2°50.809 11.7 1.5 224 6.3
2009-03-16 09:06:32 51°13.416 2°50.807 12.3 1.6 226 6.3
2009-03-16 09:06:37 51°13.414 2°50.805 12.9 1.6 226 6.3
2009-03-16 09:06:42 51°13.412 2°50.802 13.5 1.6 226 6.3
2009-03-16 09:06:47 51°13.411 2°50.8 14.1 1.6 225 6.3
2009-03-16 09:06:52 51°13.409 2°50.797 14.7 1.6 229 6.3
2009-03-16 09:06:57 51°13.408 2°50.795 15.3 1.5 224 6.4
2009-03-16 09:07:02 51°13.407 2°50.792 16.1 1.6 230 6.3
2009-03-16 09:07:06 51°13.405 2°50.79 16.4 1.6 226 6.3
2009-03-16 09:07:12 51°13.404 2°50.787 16.9 1.6 230 6.3
2009-03-16 09:07:17 51°13.402 2°50.785 17.6 1.5 226 6.4
2009-03-16 09:07:22 51°13.401 2°50.782 18.2 1.6 230 6.4
2009-03-16 09:07:27 51°13.399 2°50.779 18.3 1.6 228 6.4
2009-03-16 09:07:32 51°13.398 2°50.777 19.1 1.6 229 6.4
2009-03-16 09:07:37 51°13.396 2°50.774 19.7 1.6 227 6.4
2009-03-16 09:07:42 51°13.395 2°50.771 20.1 1.6 230 6.4
2009-03-16 09:07:47 51°13.393 2°50.769 20.5 1.6 227 6.3
2009-03-16 09:07:53 51°13.392 2°50.766 21.2 1.6 232 6.3
2009-03-16 09:07:57 51°13.391 2°50.763 21.6 1.6 230 6.4
2009-03-16 09:08:02 51°13.389 2°50.761 22 1.6 230 6.4
2009-03-16 09:08:07 51°13.388 2°50.758 22.6 1.5 230 6.4
2009-03-16 09:08:12 51°13.386 2°50.756 23.1 1.6 230 6.4
2009-03-16 09:08:17 51°13.385 2°50.753 23.3 1.6 234 6.4
2009-03-16 09:08:22 51°13.384 2°50.75 23.9 1.5 231 6.4
2009-03-16 09:08:27 51°13.383 2°50.748 24.4 1.5 232 6.4
2009-03-16 09:08:32 51°13.381 2°50.745 24.9 1.5 231 6.4
2009-03-16 09:08:37 51°13.38 2°50.742 25.2 1.6 232 6.4
2009-03-16 09:08:42 51°13.378 2°50.739 25.6 1.6 232 6.4
2009-03-16 09:08:47 51°13.377 2°50.737 26.1 1.5 233 6.4
2009-03-16 09:08:52 51°13.376 2°50.734 26.4 1.5 235 6.4
2009-03-16 09:08:57 51°13.375 2°50.732 26.9 1.5 233 6.4
2009-03-16 09:09:02 51°13.374 2°50.729 27.7 1.5 236 6.4
2009-03-16 09:09:07 51°13.373 2°50.726 28.3 1.4 238 6.4
2009-03-16 09:09:12 51°13.371 2°50.724 29.4 1.3 236 6.4
2009-03-16 09:09:17 51°13.371 2°50.721 30.6 1.3 239 6.4
2009-03-16 09:09:21 51°13.37 2°50.72 31.8 1.2 239 6.5
2009-03-16 09:09:27 51°13.369 2°50.717 32.7 1.2 241 6.5
2009-03-16 09:09:32 51°13.368 2°50.715 33.6 1.1 236 6.5
2009-03-16 09:09:37 51°13.368 2°50.712 34.6 1.2 248 6.4
2009-03-16 09:09:42 51°13.367 2°50.71 35.2 1 241 6.4
2009-03-16 09:09:47 51°13.366 2°50.709 36.4 1 243 6.4
2009-03-16 09:09:52 51°13.366 2°50.706 37 1 246 6.4
2009-03-16 09:09:57 51°13.365 2°50.704 37.4 1 250 6.3
2009-03-16 09:10:02 51°13.365 2°50.703 38 0.9 247 6.4
2009-03-16 09:10:06 51°13.364 2°50.701 38.8 0.9 254 6.4
2009-03-16 09:10:12 51°13.364 2°50.699 39.5 0.7 248 6.4
2009-03-16 09:10:17 51°13.364 2°50.698 40.1 0.7 257 6.4
2009-03-16 09:10:22 51°13.364 2°50.696 40.7 0.7 263 6.4
2009-03-16 09:10:27 51°13.364 2°50.695 41.3 0.6 261 6.4
2009-03-16 09:10:32 51°13.364 2°50.694 41.9 0.6 272 6.4
2009-03-16 09:10:37 51°13.364 2°50.693 42.6 0.5 273 6.4
2009-03-16 09:10:42 51°13.364 2°50.691 43.2 0.5 284 6.4
2009-03-16 09:10:47 51°13.364 2°50.69 43.8 0.4 286 6.4
2009-03-16 09:10:52 51°13.365 2°50.69 44.3 0.4 292 6.4
2009-03-16 09:10:57 51°13.365 2°50.689 44.6 0.4 301 6.4
2009-03-16 09:11:02 51°13.365 2°50.688 44.9 0.4 306 6.4
2009-03-16 09:11:07 51°13.365 2°50.688 45.1 0.3 312 6.4
2009-03-16 09:11:12 51°13.366 2°50.687 45.4 0.4 328 6.4
2009-03-16 09:11:17 51°13.366 2°50.687 45.3 0.3 340 6.4
2009-03-16 09:11:22 51°13.367 2°50.687 45.6 0.4 340 6.4
2009-03-16 09:11:27 51°13.368 2°50.686 45.6 0.3 353 6.4
2009-03-16 09:11:33 51°13.369 2°50.686 45.6 0.6 342 6.4
2009-03-16 09:11:37 51°13.369 2°50.686 45.6 0.4 17 6.4
2009-03-16 09:11:42 51°13.37 2°50.685 45.6 0.6 351 6.4
2009-03-16 09:11:47 51°13.371 2°50.686 45.5 0.5 15 6.4
2009-03-16 09:11:52 51°13.371 2°50.686 45.2 0.7 1 6.4
2009-03-16 09:11:57 51°13.372 2°50.686 45.2 0.6 12 6.4
2009-03-16 09:12:02 51°13.373 2°50.686 45 0.7 6 6.4
2009-03-16 09:12:07 51°13.374 2°50.687 44.9 0.7 8 6.4
2009-03-16 09:12:12 51°13.375 2°50.687 44.6 0.8 10 6.3
2009-03-16 09:12:17 51°13.376 2°50.688 44.5 0.7 19 6.4
2009-03-16 09:12:21 51°13.377 2°50.688 44.2 0.8 9 6.4
2009-03-16 09:12:27 51°13.378 2°50.688 43.8 0.7 14 6.3
2009-03-16 09:12:32 51°13.379 2°50.688 43.7 0.7 15 6.3
2009-03-16 09:12:37 51°13.38 2°50.689 43.5 0.8 2 6.3
2009-03-16 09:12:42 51°13.381 2°50.689 43.3 0.6 14 6.3
2009-03-16 09:12:47 51°13.382 2°50.689 43 0.7 358 6.3
2009-03-16 09:12:52 51°13.383 2°50.689 42.7 0.7 359 6.3
2009-03-16 09:12:57 51°13.383 2°50.69 42.7 0.6 10 6.3
2009-03-16 09:13:02 51°13.384 2°50.69 42.3 0.6 10 6.3
2009-03-16 09:13:07 51°13.385 2°50.69 42 0.7 1 6.3
2009-03-16 09:13:12 51°13.386 2°50.69 41.5 0.7 4 6.3
2009-03-16 09:13:17 51°13.387 2°50.69 41.2 0.7 359 6.3
2009-03-16 09:13:22 51°13.388 2°50.69 40.8 0.7 2 6.3
2009-03-16 09:13:27 51°13.389 2°50.69 40.5 0.7 357 6.3
2009-03-16 09:13:32 51°13.39 2°50.69 40 0.7 354 6.3
2009-03-16 09:13:37 51°13.391 2°50.69 39.6 0.7 1 6.3
2009-03-16 09:13:42 51°13.392 2°50.69 39.2 0.7 352 6.3
2009-03-16 09:13:47 51°13.393 2°50.69 38.6 0.7 358 6.3
2009-03-16 09:13:52 51°13.394 2°50.689 37.9 0.8 345 6.2
2009-03-16 09:13:57 51°13.395 2°50.689 37.4 0.7 352 6.2
2009-03-16 09:14:02 51°13.396 2°50.689 37.1 0.8 346 6.1
2009-03-16 09:14:07 51°13.397 2°50.689 36.4 0.8 344 6.1
2009-03-16 09:14:12 51°13.398 2°50.688 35.7 0.7 346 6.1
2009-03-16 09:14:17 51°13.398 2°50.688 35.5 0.7 350 6.1
2009-03-16 09:14:22 51°13.4 2°50.687 34.8 0.8 342 6.1
2009-03-16 09:14:27 51°13.4 2°50.687 34.2 0.7 347 6.1
2009-03-16 09:14:32 51°13.401 2°50.687 33.9 0.7 349 6.1
2009-03-16 09:14:37 51°13.402 2°50.686 33.4 0.8 338 6.1
2009-03-16 09:14:42 51°13.403 2°50.685 32.9 0.8 340 6.1
2009-03-16 09:14:47 51°13.404 2°50.685 32.6 0.7 342 6.1
2009-03-16 09:14:52 51°13.405 2°50.684 32 0.9 333 6
2009-03-16 09:14:57 51°13.406 2°50.684 31.6 0.7 341 6
2009-03-16 09:15:02 51°13.407 2°50.683 31.3 0.8 336 5.9
2009-03-16 09:15:07 51°13.408 2°50.682 30.9 0.7 341 6
2009-03-16 09:15:12 51°13.409 2°50.682 30.3 0.9 329 5.9
2009-03-16 09:15:17 51°13.41 2°50.681 29.8 0.7 341 5.9
2009-03-16 09:15:22 51°13.411 2°50.68 29.4 0.9 331 5.9
2009-03-16 09:15:27 51°13.412 2°50.68 29 0.7 338 5.9
2009-03-16 09:15:32 51°13.413 2°50.679 28.4 0.8 332 5.9
2009-03-16 09:15:37 51°13.414 2°50.678 28.4 0.7 337 5.8
2009-03-16 09:15:42 51°13.415 2°50.677 28.4 0.8 333 5.9
2009-03-16 09:15:47 51°13.416 2°50.677 28.5 0.7 340 5.8
2009-03-16 09:15:52 51°13.416 2°50.676 28.7 0.8 332 5.8
2009-03-16 09:15:57 51°13.417 2°50.676 29.2 0.7 336 5.8
2009-03-16 09:16:02 51°13.418 2°50.675 29.9 0.9 329 5.8
2009-03-16 09:16:06 51°13.419 2°50.675 30.6 0.6 342 5.8
2009-03-16 09:16:12 51°13.42 2°50.673 31.3 0.8 333 5.8
2009-03-16 09:16:17 51°13.421 2°50.673 32 0.6 343 5.8
2009-03-16 09:16:22 51°13.422 2°50.673 32.8 0.7 335 5.7
2009-03-16 09:16:27 51°13.422 2°50.672 34 0.6 340 5.7
2009-03-16 09:16:32 51°13.423 2°50.671 34.9 0.6 333 5.8
2009-03-16 09:16:37 51°13.424 2°50.671 35.8 0.6 339 5.8
2009-03-16 09:16:42 51°13.425 2°50.67 36.9 0.6 340 5.8
2009-03-16 09:16:47 51°13.425 2°50.67 37.9 0.6 338 5.7
2009-03-16 09:16:53 51°13.426 2°50.67 39 0.5 346 5.8
2009-03-16 09:16:57 51°13.427 2°50.669 40.1 0.5 347 5.7
2009-03-16 09:17:02 51°13.427 2°50.669 41.2 0.4 354 5.7
2009-03-16 09:17:07 51°13.428 2°50.669 42.3 0.5 357 5.7
2009-03-16 09:17:12 51°13.429 2°50.669 44.4 0.6 22 5.7
2009-03-16 09:17:17 51°13.43 2°50.67 46.9 0.6 34 5.7
2009-03-16 09:17:22 51°13.431 2°50.671 50.2 0.7 39 5.6
2009-03-16 09:17:27 51°13.431 2°50.673 54.3 0.8 55 5.6
2009-03-16 09:17:32 51°13.432 2°50.674 58.6 0.9 69 5.6
2009-03-16 09:17:37 51°13.433 2°50.676 63 1 66 5.6
2009-03-16 09:17:42 51°13.433 2°50.679 67.6 1.1 85 5.7
2009-03-16 09:17:46 51°13.433 2°50.681 72 1.2 87 5.7
2009-03-16 09:17:52 51°13.432 2°50.685 77 1.4 97 5.7
2009-03-16 09:17:57 51°13.432 2°50.688 82.1 1.6 101 5.8
2009-03-16 09:18:02 51°13.432 2°50.692 87 1.7 109 5.8
2009-03-16 09:18:07 51°13.431 2°50.696 91.5 1.9 107 5.8
2009-03-16 09:18:12 51°13.43 2°50.7 93.9 2 112 5.9
2009-03-16 09:18:17 51°13.429 2°50.704 95.6 2.2 110 5.9
2009-03-16 09:18:22 51°13.428 2°50.709 95.9 2.2 110 5.9
2009-03-16 09:18:26 51°13.427 2°50.713 95.2 2.4 110 5.9
2009-03-16 09:18:32 51°13.425 2°50.719 94.5 2.5 108 5.9
2009-03-16 09:18:37 51°13.424 2°50.725 94.4 2.7 108 6
2009-03-16 09:18:42 51°13.423 2°50.731 94.2 2.7 106 6.1
2009-03-16 09:18:47 51°13.422 2°50.737 94.4 2.9 109 6.1
2009-03-16 09:18:52 51°13.421 2°50.743 94.7 3 110 6.1
2009-03-16 09:18:57 51°13.419 2°50.749 95.5 3 105 6.1
2009-03-16 09:19:02 51°13.418 2°50.756 96 3.2 111 6.1
2009-03-16 09:19:07 51°13.416 2°50.763 96.3 3.2 109 6.2
2009-03-16 09:19:12 51°13.415 2°50.77 97.2 3.3 110 6.2
2009-03-16 09:19:17 51°13.413 2°50.777 97.3 3.3 110 6.2
2009-03-16 09:19:22 51°13.411 2°50.784 98.1 3.4 112 6.3
2009-03-16 09:19:27 51°13.409 2°50.791 98.5 3.5 111 6.3
2009-03-16 09:19:32 51°13.408 2°50.798 98.7 3.5 110 6.3
2009-03-16 09:19:37 51°13.406 2°50.805 98.6 3.6 110 6.3
2009-03-16 09:19:42 51°13.404 2°50.813 98.1 3.6 111 6.3
2009-03-16 09:19:47 51°13.403 2°50.82 97.8 3.4 108 6.3
2009-03-16 09:19:52 51°13.401 2°50.827 97 3.2 110 6.3
2009-03-16 09:19:57 51°13.4 2°50.833 96.2 3 109 6.3
2009-03-16 09:20:02 51°13.399 2°50.839 95.1 2.8 111 6.3
2009-03-16 09:20:06 51°13.398 2°50.843 94.4 2.6 105 6.3
2009-03-16 09:20:12 51°13.397 2°50.849 93 2.5 112 6.3
2009-03-16 09:20:17 51°13.396 2°50.854 92.3 2.3 104 6.4
2009-03-16 09:20:22 51°13.395 2°50.858 91.5 2.2 116 6.4
2009-03-16 09:20:26 51°13.394 2°50.862 91.8 1.9 106 6.4
2009-03-16 09:20:32 51°13.392 2°50.866 92.8 1.9 123 6.4
2009-03-16 09:20:37 51°13.391 2°50.869 94.5 1.6 117 6.4
2009-03-16 09:20:42 51°13.39 2°50.872 97 1.6 128 6.3
2009-03-16 09:20:47 51°13.388 2°50.874 100.2 1.4 129 6.4
2009-03-16 09:20:52 51°13.387 2°50.876 103.3 1.5 146 6.4
2009-03-16 09:20:57 51°13.385 2°50.878 106.5 1.2 142 6.4
2009-03-16 09:21:02 51°13.383 2°50.879 109.2 1.3 157 6.4
2009-03-16 09:21:07 51°13.382 2°50.88 111.5 1.1 157 6.3
2009-03-16 09:21:13 51°13.38 2°50.88 114 1.2 172 6.3
2009-03-16 09:21:17 51°13.379 2°50.88 116.2 1 177 6.4
2009-03-16 09:21:22 51°13.378 2°50.88 118.4 1 183 6.4
2009-03-16 09:21:27 51°13.376 2°50.88 120.9 1.1 192 6.3
2009-03-16 09:21:32 51°13.375 2°50.879 123.5 1.1 191 6.4
2009-03-16 09:21:37 51°13.373 2°50.878 125.7 1.2 197 6.4
2009-03-16 09:21:42 51°13.372 2°50.878 128.3 1 193 6.3
2009-03-16 09:21:47 51°13.37 2°50.877 130.8 1.2 198 6.4
2009-03-16 09:21:52 51°13.368 2°50.876 132.8 1.2 198 6.3
2009-03-16 09:21:57 51°13.367 2°50.876 134.9 1.2 198 6.4
2009-03-16 09:22:02 51°13.365 2°50.874 136.9 1.2 202 6.4
2009-03-16 09:22:07 51°13.364 2°50.874 138.4 1.2 203 6.3
2009-03-16 09:22:12 51°13.362 2°50.872 140.2 1.2 202 6.4
2009-03-16 09:22:17 51°13.361 2°50.871 141.7 1.3 203 6.4
2009-03-16 09:22:22 51°13.359 2°50.87 143.2 1.3 205 6.4
2009-03-16 09:22:27 51°13.357 2°50.869 144.5 1.3 206 6.3
2009-03-16 09:22:32 51°13.356 2°50.868 145.9 1.2 205 6.4
2009-03-16 09:22:37 51°13.354 2°50.867 147.2 1.3 206 6.4
2009-03-16 09:22:41 51°13.353 2°50.865 148.2 1.3 207 6.3
2009-03-16 09:22:47 51°13.351 2°50.864 149.5 1.3 207 6.3
2009-03-16 09:22:52 51°13.349 2°50.862 150.1 1.4 211 6.3
2009-03-16 09:22:57 51°13.348 2°50.861 151.2 1.3 207 6.3
2009-03-16 09:23:02 51°13.346 2°50.859 152.2 1.4 212 6.3
2009-03-16 09:23:07 51°13.344 2°50.858 153 1.3 209 6.3
2009-03-16 09:23:12 51°13.343 2°50.856 154 1.4 212 6.3
2009-03-16 09:23:17 51°13.341 2°50.855 154.8 1.3 211 6.3
2009-03-16 09:23:22 51°13.34 2°50.853 155.7 1.4 214 6.3
2009-03-16 09:23:26 51°13.338 2°50.852 156.4 1.3 212 6.3
2009-03-16 09:23:32 51°13.337 2°50.85 157.1 1.4 215 6.3
2009-03-16 09:23:37 51°13.335 2°50.849 158 1.3 214 6.4
2009-03-16 09:23:42 51°13.334 2°50.847 158.8 1.4 216 6.3
2009-03-16 09:23:46 51°13.332 2°50.845 159.6 1.3 213 6.3
2009-03-16 09:23:52 51°13.33 2°50.843 160.3 1.4 218 6.3
2009-03-16 09:23:57 51°13.329 2°50.842 161.1 1.3 215 6.3
2009-03-16 09:24:02 51°13.327 2°50.84 161.9 1.4 217 6.3
2009-03-16 09:24:07 51°13.326 2°50.838 162.6 1.4 216 6.3
2009-03-16 09:24:12 51°13.324 2°50.836 163.4 1.4 217 6.4
2009-03-16 09:24:17 51°13.323 2°50.834 164.1 1.3 217 6.3
2009-03-16 09:24:22 51°13.321 2°50.832 164.8 1.5 219 6.4
2009-03-16 09:24:27 51°13.319 2°50.831 165.4 1.4 217 6.3
2009-03-16 09:24:32 51°13.317 2°50.829 166.1 1.5 219 6.3
2009-03-16 09:24:37 51°13.317 2°50.827 166.8 1.4 217 6.4
2009-03-16 09:24:42 51°13.315 2°50.825 167.5 1.4 219 6.4
2009-03-16 09:24:47 51°13.314 2°50.822 168.2 1.4 221 6.3
2009-03-16 09:24:52 51°13.312 2°50.82 168.7 1.4 221 6.3
2009-03-16 09:24:57 51°13.311 2°50.819 169.4 1.4 220 6.3
2009-03-16 09:25:02 51°13.309 2°50.816 170 1.5 221 6.3
2009-03-16 09:25:07 51°13.308 2°50.814 170.7 1.4 220 6.4
2009-03-16 09:25:13 51°13.306 2°50.812 171.4 1.4 221 6.4
2009-03-16 09:25:17 51°13.305 2°50.81 171.8 1.4 222 6.3
2009-03-16 09:25:22 51°13.303 2°50.808 172.4 1.4 222 6.4
2009-03-16 09:25:27 51°13.302 2°50.806 172.9 1.5 222 6.3
2009-03-16 09:25:32 51°13.3 2°50.804 173.6 1.5 222 6.3
2009-03-16 09:25:37 51°13.299 2°50.802 174.1 1.4 220 6.3
2009-03-16 09:25:42 51°13.297 2°50.799 174.8 1.5 225 6.3
2009-03-16 09:25:47 51°13.296 2°50.797 175.1 1.5 223 6.3
2009-03-16 09:25:52 51°13.294 2°50.794 175.8 1.5 224 6.3
2009-03-16 09:25:57 51°13.292 2°50.792 176.4 1.5 222 6.3
2009-03-16 09:26:02 51°13.291 2°50.79 176.9 1.5 224 6.3
2009-03-16 09:26:07 51°13.289 2°50.788 177.6 1.5 223 6.3
2009-03-16 09:26:12 51°13.288 2°50.785 177.9 1.6 225 6.3
2009-03-16 09:26:17 51°13.286 2°50.783 178.6 1.4 222 6.3
2009-03-16 09:26:22 51°13.285 2°50.78 179.3 1.6 226 6.3
2009-03-16 09:26:27 51°13.283 2°50.778 179.8 1.5 224 6.3
2009-03-16 09:26:32 51°13.282 2°50.776 180.2 1.5 225 6.3
2009-03-16 09:26:37 51°13.28 2°50.773 180.8 1.5 224 6.3
2009-03-16 09:26:42 51°13.279 2°50.771 181.3 1.5 226 6.3
2009-03-16 09:26:47 51°13.278 2°50.769 181.5 1.5 227 6.3
2009-03-16 09:26:52 51°13.276 2°50.767 182.3 1.4 224 6.3
2009-03-16 09:26:57 51°13.275 2°50.764 182.7 1.6 227 6.3
2009-03-16 09:27:02 51°13.273 2°50.762 183 1.5 224 6.4
2009-03-16 09:27:07 51°13.272 2°50.76 183.4 1.5 227 6.3
2009-03-16 09:27:12 51°13.27 2°50.757 183.7 1.5 226 6.3
2009-03-16 09:27:17 51°13.269 2°50.755 184.1 1.5 225 6.3
2009-03-16 09:27:22 51°13.267 2°50.753 184.5 1.5 227 6.3
2009-03-16 09:27:27 51°13.266 2°50.751 184.7 1.5 226 6.3
2009-03-16 09:27:32 51°13.264 2°50.748 185.2 1.5 226 6.3
2009-03-16 09:27:37 51°13.263 2°50.745 185.3 1.6 230 6.3
2009-03-16 09:27:42 51°13.261 2°50.743 185.8 1.4 224 6.3
2009-03-16 09:27:46 51°13.26 2°50.74 186.3 1.6 230 6.3
2009-03-16 09:27:52 51°13.259 2°50.738 186.3 1.5 225 6.3
2009-03-16 09:27:57 51°13.257 2°50.735 186.6 1.6 228 6.3
2009-03-16 09:28:02 51°13.255 2°50.733 186.8 1.5 225 6.3
2009-03-16 09:28:06 51°13.254 2°50.731 187.3 1.5 226 6.3
2009-03-16 09:28:12 51°13.253 2°50.728 187.6 1.6 229 6.3
2009-03-16 09:28:17 51°13.251 2°50.726 187.7 1.6 229 6.3
2009-03-16 09:28:22 51°13.25 2°50.723 188 1.5 227 6.3
2009-03-16 09:28:27 51°13.248 2°50.721 188.1 1.6 229 6.3
2009-03-16 09:28:32 51°13.247 2°50.718 188.2 1.6 229 6.3
2009-03-16 09:28:37 51°13.245 2°50.716 188.6 1.5 228 6.3
2009-03-16 09:28:42 51°13.244 2°50.713 188.7 1.6 228 6.3
2009-03-16 09:28:47 51°13.242 2°50.711 188.8 1.6 230 6.3
2009-03-16 09:28:52 51°13.241 2°50.708 189 1.5 226 6.3
2009-03-16 09:28:57 51°13.239 2°50.706 189.2 1.5 229 6.3
2009-03-16 09:29:02 51°13.238 2°50.703 189.2 1.5 228 6.4
2009-03-16 09:29:07 51°13.237 2°50.701 189.4 1.5 228 6.3
2009-03-16 09:29:12 51°13.235 2°50.698 189.5 1.5 228 6.3
2009-03-16 09:29:17 51°13.234 2°50.696 189.5 1.6 230 6.3
2009-03-16 09:29:22 51°13.232 2°50.693 189.6 1.6 229 6.3
2009-03-16 09:29:27 51°13.231 2°50.691 189.9 1.5 228 6.3
2009-03-16 09:29:33 51°13.229 2°50.688 189.8 1.6 228 6.3
2009-03-16 09:29:37 51°13.228 2°50.686 189.8 1.5 229 6.3
2009-03-16 09:29:42 51°13.227 2°50.683 190 1.5 227 6.4
2009-03-16 09:29:47 51°13.225 2°50.681 190 1.6 230 6.3
2009-03-16 09:29:52 51°13.224 2°50.678 190.1 1.5 228 6.3
2009-03-16 09:29:57 51°13.223 2°50.676 190.1 1.5 229 6.3
2009-03-16 09:30:02 51°13.221 2°50.673 190.1 1.5 227 6.3
2009-03-16 09:30:07 51°13.22 2°50.671 190.1 1.6 232 6.3
2009-03-16 09:30:12 51°13.218 2°50.668 190.1 1.5 226 6.3
2009-03-16 09:30:17 51°13.217 2°50.665 190.2 1.6 232 6.3
2009-03-16 09:30:22 51°13.216 2°50.663 190.2 1.5 226 6.3
2009-03-16 09:30:27 51°13.214 2°50.66 190.2 1.6 233 6.4
2009-03-16 09:30:32 51°13.213 2°50.658 190.2 1.4 226 6.3
2009-03-16 09:30:37 51°13.211 2°50.655 190.2 1.6 232 6.3
2009-03-16 09:30:42 51°13.21 2°50.653 190.2 1.5 225 6.3
2009-03-16 09:30:46 51°13.209 2°50.651 190.2 1.5 232 6.3
2009-03-16 09:30:52 51°13.207 2°50.648 190.2 1.5 228 6.3
2009-03-16 09:30:57 51°13.206 2°50.645 190.2 1.6 231 6.3
2009-03-16 09:31:02 51°13.204 2°50.643 190.2 1.5 229 6.3
2009-03-16 09:31:06 51°13.203 2°50.641 190.2 1.5 229 6.3
2009-03-16 09:31:12 51°13.202 2°50.638 190.2 1.5 228 6.5
2009-03-16 09:31:17 51°13.2 2°50.635 190.2 1.6 231 6.3
2009-03-16 09:31:22 51°13.199 2°50.633 190.2 1.5 229 6.3
2009-03-16 09:31:26 51°13.197 2°50.631 190.2 1.5 229 6.3
2009-03-16 09:31:32 51°13.196 2°50.628 190.1 1.5 231 6.3
2009-03-16 09:31:37 51°13.195 2°50.625 190.2 1.5 229 6.3
2009-03-16 09:31:42 51°13.193 2°50.623 190.2 1.6 230 6.3
2009-03-16 09:31:47 51°13.192 2°50.62 190.2 1.5 230 6.3
2009-03-16 09:31:52 51°13.19 2°50.618 190.2 1.5 229 6.3
2009-03-16 09:31:57 51°13.189 2°50.615 190.2 1.6 230 6.3
2009-03-16 09:32:02 51°13.188 2°50.612 190.2 1.6 229 6.3
2009-03-16 09:32:06 51°13.186 2°50.61 190.2 1.6 230 6.3
2009-03-16 09:32:12 51°13.185 2°50.607 190.2 1.5 229 6.4
2009-03-16 09:32:17 51°13.183 2°50.605 190.4 1.5 230 6.4
2009-03-16 09:32:22 51°13.182 2°50.602 190.4 1.5 230 6.4
2009-03-16 09:32:27 51°13.181 2°50.6 190.5 1.5 229 6.4
2009-03-16 09:32:32 51°13.179 2°50.597 190.4 1.5 230 6.4
2009-03-16 09:32:37 51°13.178 2°50.595 190.5 1.5 229 6.3
2009-03-16 09:32:42 51°13.177 2°50.592 190.6 1.6 232 6.3
2009-03-16 09:32:46 51°13.176 2°50.59 190.6 1.5 230 6.3
2009-03-16 09:32:52 51°13.174 2°50.587 190.6 1.5 230 6.3
2009-03-16 09:32:57 51°13.173 2°50.584 190.6 1.6 231 6.4
2009-03-16 09:33:02 51°13.171 2°50.581 190.7 1.5 230 6.4
2009-03-16 09:33:06 51°13.17 2°50.579 190.7 1.5 228 6.3
2009-03-16 09:33:12 51°13.169 2°50.576 190.7 1.5 229 6.4
2009-03-16 09:33:17 51°13.167 2°50.574 190.7 1.5 228 6.3
2009-03-16 09:33:22 51°13.166 2°50.571 190.7 1.6 230 6.3
2009-03-16 09:33:27 51°13.164 2°50.568 190.7 1.6 230 6.3
2009-03-16 09:33:32 51°13.163 2°50.566 190.8 1.5 229 6.4
2009-03-16 09:33:37 51°13.162 2°50.563 190.9 1.5 229 6.3
2009-03-16 09:33:42 51°13.16 2°50.561 190.7 1.5 231 6.3
2009-03-16 09:33:46 51°13.159 2°50.559 190.9 1.5 226 6.3
2009-03-16 09:33:52 51°13.158 2°50.556 190.9 1.5 232 6.3
2009-03-16 09:33:57 51°13.156 2°50.553 190.9 1.5 228 6.3
2009-03-16 09:34:02 51°13.155 2°50.551 190.9 1.5 232 6.3
2009-03-16 09:34:07 51°13.154 2°50.548 191 1.4 225 6.3
2009-03-16 09:34:12 51°13.152 2°50.546 190.8 1.7 232 6.3
2009-03-16 09:34:17 51°13.151 2°50.543 191 1.5 226 6.3
2009-03-16 09:34:22 51°13.149 2°50.541 191 1.6 232 6.3
2009-03-16 09:34:27 51°13.148 2°50.538 190.8 1.5 228 6.3
2009-03-16 09:34:32 51°13.147 2°50.536 191 1.5 230 6.3
2009-03-16 09:34:37 51°13.145 2°50.533 191 1.5 227 6.3
2009-03-16 09:34:42 51°13.144 2°50.531 191 1.5 229 6.3
2009-03-16 09:34:47 51°13.143 2°50.528 191 1.5 227 6.3
2009-03-16 09:34:52 51°13.141 2°50.526 191 1.6 232 6.3
2009-03-16 09:34:57 51°13.14 2°50.523 191 1.4 225 6.3
2009-03-16 09:35:02 51°13.139 2°50.52 191 1.6 233 6.3
2009-03-16 09:35:07 51°13.137 2°50.518 191.1 1.5 226 6.3
2009-03-16 09:35:12 51°13.136 2°50.515 191.2 1.5 229 6.3
2009-03-16 09:35:17 51°13.134 2°50.513 191 1.5 229 6.3
2009-03-16 09:35:22 51°13.133 2°50.511 191.2 1.4 227 6.3
2009-03-16 09:35:27 51°13.132 2°50.508 191.2 1.5 230 6.3
2009-03-16 09:35:33 51°13.13 2°50.505 191.2 1.6 230 6.3
2009-03-16 09:35:37 51°13.129 2°50.503 191.2 1.6 226 6.3
2009-03-16 09:35:42 51°13.128 2°50.5 191.1 1.6 228 6.4
2009-03-16 09:35:47 51°13.126 2°50.498 191.1 1.7 220 6.3
2009-03-16 09:35:52 51°13.124 2°50.494 191.5 1.9 222 6.3
2009-03-16 09:35:57 51°13.122 2°50.492 191.2 2.1 218 6.3
2009-03-16 09:36:02 51°13.119 2°50.489 191.9 2.3 217 6.3
2009-03-16 09:36:07 51°13.116 2°50.486 193 2.4 215 6.3
2009-03-16 09:36:12 51°13.113 2°50.482 194.3 2.7 217 6.3
2009-03-16 09:36:17 51°13.11 2°50.479 195.8 2.8 213 6.3
2009-03-16 09:36:22 51°13.106 2°50.475 197.2 3 216 6.3
2009-03-16 09:36:26 51°13.104 2°50.472 198.9 3.1 214 6.3
2009-03-16 09:36:32 51°13.099 2°50.466 200.4 3.3 215 6.3
2009-03-16 09:36:37 51°13.095 2°50.462 202.2 3.5 216 6.3
2009-03-16 09:36:42 51°13.091 2°50.457 204 3.6 216 6.3
2009-03-16 09:36:47 51°13.087 2°50.452 205.9 3.7 218 6.3
2009-03-16 09:36:52 51°13.083 2°50.447 207.6 3.9 220 6.3
2009-03-16 09:36:57 51°13.079 2°50.441 209.6 4 218 6.3
2009-03-16 09:37:02 51°13.074 2°50.435 211.3 4.1 222 6.2
2009-03-16 09:37:07 51°13.07 2°50.43 213 4.2 220 6.3
2009-03-16 09:37:12 51°13.066 2°50.423 215 4.3 225 6.3
2009-03-16 09:37:17 51°13.061 2°50.416 217.1 4.4 222 6.2
2009-03-16 09:37:22 51°13.057 2°50.409 218.8 4.5 226 6.3
2009-03-16 09:37:27 51°13.052 2°50.402 221 4.5 223 6.2
2009-03-16 09:37:33 51°13.048 2°50.393 222.9 4.7 231 6.2
2009-03-16 09:37:37 51°13.044 2°50.387 225.1 4.7 228 6.2
2009-03-16 09:37:42 51°13.04 2°50.378 227 4.8 232 6.3
2009-03-16 09:37:47 51°13.036 2°50.37 229.1 4.8 230 6.3
2009-03-16 09:37:52 51°13.032 2°50.361 230.9 4.8 234 6.2
2009-03-16 09:37:57 51°13.028 2°50.353 232 4.9 234 6.3
2009-03-16 09:38:02 51°13.024 2°50.344 233 4.9 235 6.2
2009-03-16 09:38:06 51°13.021 2°50.337 233.4 4.9 234 6.3
2009-03-16 09:38:12 51°13.016 2°50.327 233.2 4.9 235 6.3
2009-03-16 09:38:17 51°13.012 2°50.318 232.9 4.9 233 6.3
2009-03-16 09:38:22 51°13.008 2°50.309 232.1 4.9 234 6.3
2009-03-16 09:38:26 51°13.005 2°50.302 230.9 4.9 232 6.2
2009-03-16 09:38:32 51°13 2°50.292 230 4.8 232 6.3
2009-03-16 09:38:37 51°12.996 2°50.284 229.1 4.8 231 6.3
2009-03-16 09:38:42 51°12.991 2°50.276 228.2 4.7 232 6.2
2009-03-16 09:38:47 51°12.987 2°50.268 227.4 4.7 230 6.3
2009-03-16 09:38:52 51°12.983 2°50.26 226.8 4.6 231 6.3
2009-03-16 09:38:57 51°12.979 2°50.252 226.3 4.6 229 6.3
2009-03-16 09:39:02 51°12.975 2°50.244 225.8 4.5 231 6.3
2009-03-16 09:39:07 51°12.971 2°50.237 225.3 4.4 230 6.3
2009-03-16 09:39:13 51°12.966 2°50.229 225.1 4.4 229 6.3
2009-03-16 09:39:17 51°12.963 2°50.223 224.7 4.3 230 6.3
2009-03-16 09:39:22 51°12.959 2°50.216 224.7 4.3 228 6.2
2009-03-16 09:39:27 51°12.955 2°50.208 224.8 4.3 232 6.2
2009-03-16 09:39:32 51°12.951 2°50.202 224.8 4.2 228 6.3
2009-03-16 09:39:37 51°12.948 2°50.194 225.1 4.1 230 6.3
2009-03-16 09:39:42 51°12.944 2°50.187 225.4 4.1 230 6.3
2009-03-16 09:39:47 51°12.94 2°50.181 225.6 4.1 230 6.3
2009-03-16 09:39:52 51°12.937 2°50.174 226.2 4 230 6.3
2009-03-16 09:39:57 51°12.933 2°50.167 226.4 4 232 6.3
2009-03-16 09:40:01 51°12.931 2°50.162 226.8 3.9 231 6.2
2009-03-16 09:40:07 51°12.927 2°50.154 227.4 3.9 232 6.3
2009-03-16 09:40:13 51°12.923 2°50.146 227.8 3.8 232 6.3
2009-03-16 09:40:17 51°12.92 2°50.141 228.4 3.8 233 6.3
2009-03-16 09:40:22 51°12.917 2°50.134 229.1 3.7 231 6.3
2009-03-16 09:40:27 51°12.914 2°50.127 229.4 3.6 234 6.2
2009-03-16 09:40:32 51°12.911 2°50.122 230.1 3.6 232 6.2
2009-03-16 09:40:37 51°12.908 2°50.115 230.4 3.6 236 6.2
2009-03-16 09:40:42 51°12.905 2°50.109 231 3.5 233 6.2
2009-03-16 09:40:46 51°12.903 2°50.104 231.9 3.5 234 6.2
2009-03-16 09:40:52 51°12.9 2°50.096 232.2 3.5 236 6.2
2009-03-16 09:40:57 51°12.897 2°50.09 232.5 3.4 235 6.2
2009-03-16 09:41:02 51°12.894 2°50.084 233.1 3.4 236 6.2
2009-03-16 09:41:07 51°12.892 2°50.078 233.3 3.4 237 6.2
2009-03-16 09:41:12 51°12.889 2°50.072 233.6 3.3 236 6.3
2009-03-16 09:41:17 51°12.886 2°50.066 233.9 3.3 234 6.3
2009-03-16 09:41:22 51°12.884 2°50.06 233.9 3.3 239 6.2
2009-03-16 09:41:27 51°12.881 2°50.054 234.2 3.2 238 6.3
2009-03-16 09:41:33 51°12.878 2°50.048 234.5 3.2 233 6.2
2009-03-16 09:41:37 51°12.876 2°50.043 234.2 3.2 240 6.2
2009-03-16 09:41:42 51°12.874 2°50.037 233.9 3.1 234 6.3
2009-03-16 09:41:47 51°12.872 2°50.031 233.7 3.1 240 6.3
2009-03-16 09:41:52 51°12.869 2°50.026 233.1 3.1 233 6.3
2009-03-16 09:41:57 51°12.867 2°50.02 232.6 3.1 238 6.3
2009-03-16 09:42:02 51°12.864 2°50.015 231.7 3.1 233 6.2
2009-03-16 09:42:07 51°12.862 2°50.009 231 3 235 6.2
2009-03-16 09:42:13 51°12.859 2°50.002 230.2 3 233 6.2
2009-03-16 09:42:17 51°12.857 2°49.998 229.5 3 237 6.2
2009-03-16 09:42:22 51°12.855 2°49.993 228.8 2.9 230 6.2
2009-03-16 09:42:27 51°12.852 2°49.987 228.1 2.9 234 6.2
2009-03-16 09:42:32 51°12.85 2°49.982 227.3 2.9 233 6.2
2009-03-16 09:42:37 51°12.847 2°49.977 226.3 2.9 234 6.2
2009-03-16 09:42:42 51°12.845 2°49.973 225.8 2.9 231 6.2
2009-03-16 09:42:47 51°12.842 2°49.968 225.1 2.9 231 6.2
2009-03-16 09:42:52 51°12.84 2°49.962 224.2 2.9 234 6.2
2009-03-16 09:42:57 51°12.837 2°49.958 223.5 2.8 229 6.2
2009-03-16 09:43:01 51°12.836 2°49.953 222.9 2.8 228 6.1
2009-03-16 09:43:07 51°12.833 2°49.948 221.9 2.8 233 6.2
2009-03-16 09:43:12 51°12.83 2°49.943 221.5 2.8 228 6.2
2009-03-16 09:43:17 51°12.828 2°49.938 221 2.8 233 6.1
2009-03-16 09:43:22 51°12.825 2°49.934 220.2 2.8 227 6.2
2009-03-16 09:43:27 51°12.823 2°49.929 219.9 2.8 231 6.2
2009-03-16 09:43:32 51°12.82 2°49.925 219.4 2.7 228 6.2
2009-03-16 09:43:37 51°12.818 2°49.92 218.9 2.8 231 6.1
2009-03-16 09:43:42 51°12.815 2°49.916 218.6 2.8 228 6.2
2009-03-16 09:43:47 51°12.813 2°49.911 218.3 2.8 231 6.1
2009-03-16 09:43:52 51°12.811 2°49.906 218.1 2.7 228 6.1
2009-03-16 09:43:57 51°12.808 2°49.901 218 2.8 231 6.2
2009-03-16 09:44:02 51°12.806 2°49.897 217.9 2.7 227 6.2
2009-03-16 09:44:07 51°12.803 2°49.892 217.8 2.7 230 6.1
2009-03-16 09:44:13 51°12.8 2°49.887 217.8 2.7 229 6.1
2009-03-16 09:44:17 51°12.798 2°49.883 217.8 2.7 230 6.1
2009-03-16 09:44:22 51°12.796 2°49.878 217.9 2.7 229 6.1
2009-03-16 09:44:27 51°12.794 2°49.874 218 2.7 230 6.2
2009-03-16 09:44:32 51°12.791 2°49.869 218.2 2.7 228 6.2
2009-03-16 09:44:37 51°12.789 2°49.865 218.4 2.8 230 6.1
2009-03-16 09:44:42 51°12.786 2°49.86 218.3 2.7 230 6.1
2009-03-16 09:44:46 51°12.784 2°49.857 218.5 2.7 228 6.1
2009-03-16 09:44:52 51°12.781 2°49.851 218.6 2.7 231 6
2009-03-16 09:44:57 51°12.779 2°49.847 218.6 2.7 229 6.1
2009-03-16 09:45:02 51°12.776 2°49.842 218.6 2.7 231 6
2009-03-16 09:45:07 51°12.774 2°49.838 218.6 2.7 229 6.1
2009-03-16 09:45:12 51°12.771 2°49.833 218.6 2.8 228 6.1
2009-03-16 09:45:17 51°12.769 2°49.828 218.5 2.8 231 6.1
2009-03-16 09:45:22 51°12.766 2°49.824 218.6 2.7 227 6.1
2009-03-16 09:45:27 51°12.764 2°49.819 219 2.8 229 6
2009-03-16 09:45:33 51°12.761 2°49.814 218.6 2.8 231 6.1
2009-03-16 09:45:37 51°12.758 2°49.81 218.7 2.8 227 6.1
2009-03-16 09:45:42 51°12.756 2°49.805 218.7 2.8 229 6
2009-03-16 09:45:47 51°12.753 2°49.801 218.4 2.8 229 6
2009-03-16 09:45:52 51°12.751 2°49.796 218.4 2.8 229 6
2009-03-16 09:45:57 51°12.748 2°49.791 218.4 2.8 229 6
2009-03-16 09:46:02 51°12.746 2°49.787 218.4 2.8 227 6
2009-03-16 09:46:07 51°12.743 2°49.782 218.2 2.8 228 6
2009-03-16 09:46:13 51°12.74 2°49.776 218.2 2.9 228 6
2009-03-16 09:46:17 51°12.738 2°49.772 218.3 2.8 228 6
2009-03-16 09:46:22 51°12.735 2°49.767 218.3 2.9 228 5.9
2009-03-16 09:46:27 51°12.732 2°49.763 218.3 2.9 228 6
2009-03-16 09:46:32 51°12.73 2°49.758 218.6 2.9 228 5.9
2009-03-16 09:46:37 51°12.727 2°49.753 218.6 2.9 229 5.9
2009-03-16 09:46:42 51°12.724 2°49.749 218.7 2.9 227 5.9
2009-03-16 09:46:47 51°12.722 2°49.743 218.7 2.9 231 5.9
2009-03-16 09:46:53 51°12.719 2°49.738 218.9 2.9 228 5.9
2009-03-16 09:46:57 51°12.716 2°49.734 219 2.9 229 6
2009-03-16 09:47:02 51°12.714 2°49.729 219.2 2.9 228 5.9
2009-03-16 09:47:07 51°12.711 2°49.725 219.3 2.9 227 5.9
2009-03-16 09:47:12 51°12.708 2°49.719 219.3 2.9 230 5.8
2009-03-16 09:47:17 51°12.705 2°49.715 219.3 3 230 5.8
2009-03-16 09:47:22 51°12.703 2°49.71 219.3 2.9 228 5.9
2009-03-16 09:47:27 51°12.7 2°49.706 219.5 2.9 227 5.9
2009-03-16 09:47:32 51°12.697 2°49.7 219.5 3 230 5.8
2009-03-16 09:47:37 51°12.695 2°49.695 219.6 2.9 227 5.9
2009-03-16 09:47:42 51°12.692 2°49.69 219.7 2.9 229 5.8